Archival Weather

Chicago O'Hare International

Chicago, Illinois (KORD)

Report from: Wednesday, February 16, 2022 12:51 AM CST
Current time: Saturday, February 4, 2023 10:37 PM CST

Current weather
Weather history
Weather forecast

Temperature8.3°C (46.9°F)
Wind chill4.7°C (40.4°F)
Dew point-0.6°C (30.9°F)
Winds 14 kts (7.2 m/s, 16.1 mph) South-Southwest (200°)
Wind gusts 23 kts (11.8 m/s, 26.5 mph)
Peak wind 28 kts (14.4 m/s, 32.2 mph) South (180°) at 00:08
Visibility10 mi. (16.1 km)
Clouds Ceiling: Overcast 25,000 ft. (7,620 m)
Altimeter29.93 in.Hg (1014 mB)
Relative humidity53 %
Density altitude-724 ft. (-221 m)
Sea-level pressure101.4 kPa (1014 mB, 29.94 in.Hg)
Remarks Automated weather observing station with precipitation discriminator
Flight conditions Visual Meteorological Conditions
Raw dataKORD 160651Z 20014G23KT 10SM OVC250 08/M01 A2993 RMK AO2 PK WND 18028/0608 SLP138 T00831006
An unhandled exception has occurred. See browser dev tools for details. Reload 🗙